sensor_id;sensor_type;location;lat;lon;timestamp;P1;durP1;ratioP1;P2;durP2;ratioP2
13943;SDS011;7044;53.286;8.534;2022-08-01T00:01:53;6.50;;;5.65;;
13943;SDS011;7044;53.286;8.534;2022-08-01T00:04:20;9.02;;;5.90;;
13943;SDS011;7044;53.286;8.534;2022-08-01T00:06:48;7.38;;;5.70;;
13943;SDS011;7044;53.286;8.534;2022-08-01T00:09:15;8.90;;;5.75;;
13943;SDS011;7044;53.286;8.534;2022-08-01T00:11:42;11.63;;;5.97;;
13943;SDS011;7044;53.286;8.534;2022-08-01T00:14:08;7.47;;;6.53;;
13943;SDS011;7044;53.286;8.534;2022-08-01T00:16:35;11.68;;;6.53;;
13943;SDS011;7044;53.286;8.534;2022-08-01T00:19:02;7.80;;;6.60;;
13943;SDS011;7044;53.286;8.534;2022-08-01T00:21:29;8.30;;;6.20;;
13943;SDS011;7044;53.286;8.534;2022-08-01T00:23:58;13.70;;;5.95;;
13943;SDS011;7044;53.286;8.534;2022-08-01T00:26:25;8.18;;;6.10;;
13943;SDS011;7044;53.286;8.534;2022-08-01T00:28:52;7.22;;;5.22;;
13943;SDS011;7044;53.286;8.534;2022-08-01T00:31:19;6.97;;;4.93;;
13943;SDS011;7044;53.286;8.534;2022-08-01T00:33:45;8.70;;;5.75;;
13943;SDS011;7044;53.286;8.534;2022-08-01T00:36:12;10.30;;;6.03;;
13943;SDS011;7044;53.286;8.534;2022-08-01T00:38:39;8.68;;;5.10;;
13943;SDS011;7044;53.286;8.534;2022-08-01T00:41:07;6.35;;;5.20;;
13943;SDS011;7044;53.286;8.534;2022-08-01T00:43:34;6.45;;;5.00;;
13943;SDS011;7044;53.286;8.534;2022-08-01T00:46:01;9.82;;;5.05;;
13943;SDS011;7044;53.286;8.534;2022-08-01T00:48:27;8.98;;;5.65;;
13943;SDS011;7044;53.286;8.534;2022-08-01T00:50:55;8.82;;;5.82;;
13943;SDS011;7044;53.286;8.534;2022-08-01T00:53:22;7.20;;;5.88;;
13943;SDS011;7044;53.286;8.534;2022-08-01T00:55:48;6.80;;;5.78;;
13943;SDS011;7044;53.286;8.534;2022-08-01T00:58:17;11.73;;;6.50;;
13943;SDS011;7044;53.286;8.534;2022-08-01T01:00:44;12.02;;;6.13;;
13943;SDS011;7044;53.286;8.534;2022-08-01T01:03:10;11.73;;;6.50;;
13943;SDS011;7044;53.286;8.534;2022-08-01T01:05:40;9.65;;;6.38;;
13943;SDS011;7044;53.286;8.534;2022-08-01T01:08:16;7.72;;;5.72;;
13943;SDS011;7044;53.286;8.534;2022-08-01T01:10:50;6.63;;;4.70;;
13943;SDS011;7044;53.286;8.534;2022-08-01T01:13:23;6.03;;;3.80;;
13943;SDS011;7044;53.286;8.534;2022-08-01T01:15:57;4.85;;;3.88;;
13943;SDS011;7044;53.286;8.534;2022-08-01T01:18:27;3.78;;;3.38;;
13943;SDS011;7044;53.286;8.534;2022-08-01T01:21:00;3.30;;;3.00;;
13943;SDS011;7044;53.286;8.534;2022-08-01T01:23:39;3.72;;;3.25;;
13943;SDS011;7044;53.286;8.534;2022-08-01T01:26:17;5.25;;;4.07;;
13943;SDS011;7044;53.286;8.534;2022-08-01T01:29:02;4.90;;;3.58;;
13943;SDS011;7044;53.286;8.534;2022-08-01T01:31:33;4.78;;;3.85;;
13943;SDS011;7044;53.286;8.534;2022-08-01T01:34:06;4.40;;;4.00;;
13943;SDS011;7044;53.286;8.534;2022-08-01T01:36:35;7.22;;;3.78;;
13943;SDS011;7044;53.286;8.534;2022-08-01T01:39:04;4.18;;;3.78;;
13943;SDS011;7044;53.286;8.534;2022-08-01T01:41:32;5.35;;;3.83;;
13943;SDS011;7044;53.286;8.534;2022-08-01T01:44:03;4.40;;;4.00;;
13943;SDS011;7044;53.286;8.534;2022-08-01T01:46:31;5.35;;;4.30;;
13943;SDS011;7044;53.286;8.534;2022-08-01T01:48:58;5.25;;;4.75;;
13943;SDS011;7044;53.286;8.534;2022-08-01T01:51:27;8.27;;;5.60;;
13943;SDS011;7044;53.286;8.534;2022-08-01T01:53:56;5.88;;;5.30;;
13943;SDS011;7044;53.286;8.534;2022-08-01T01:56:24;7.13;;;5.68;;
13943;SDS011;7044;53.286;8.534;2022-08-01T01:58:54;6.10;;;5.50;;
13943;SDS011;7044;53.286;8.534;2022-08-01T02:01:25;5.85;;;5.35;;
13943;SDS011;7044;53.286;8.534;2022-08-01T02:03:54;4.82;;;4.43;;
13943;SDS011;7044;53.286;8.534;2022-08-01T02:06:23;5.53;;;4.55;;
13943;SDS011;7044;53.286;8.534;2022-08-01T02:08:51;5.35;;;4.40;;
13943;SDS011;7044;53.286;8.534;2022-08-01T02:11:19;6.40;;;4.90;;
13943;SDS011;7044;53.286;8.534;2022-08-01T02:13:48;5.18;;;4.68;;
13943;SDS011;7044;53.286;8.534;2022-08-01T02:16:19;7.82;;;5.40;;
13943;SDS011;7044;53.286;8.534;2022-08-01T02:18:50;8.80;;;5.32;;
13943;SDS011;7044;53.286;8.534;2022-08-01T02:21:19;5.85;;;5.20;;
13943;SDS011;7044;53.286;8.534;2022-08-01T02:23:51;5.28;;;4.63;;
13943;SDS011;7044;53.286;8.534;2022-08-01T02:26:19;7.25;;;5.95;;
13943;SDS011;7044;53.286;8.534;2022-08-01T02:28:49;7.75;;;5.40;;
13943;SDS011;7044;53.286;8.534;2022-08-01T02:31:19;6.80;;;6.10;;
13943;SDS011;7044;53.286;8.534;2022-08-01T02:33:51;6.45;;;5.38;;
13943;SDS011;7044;53.286;8.534;2022-08-01T02:36:21;5.95;;;5.35;;
13943;SDS011;7044;53.286;8.534;2022-08-01T02:38:51;7.22;;;5.68;;
13943;SDS011;7044;53.286;8.534;2022-08-01T02:41:21;7.72;;;5.63;;
13943;SDS011;7044;53.286;8.534;2022-08-01T02:43:51;9.63;;;5.78;;
13943;SDS011;7044;53.286;8.534;2022-08-01T02:46:24;7.47;;;5.70;;
13943;SDS011;7044;53.286;8.534;2022-08-01T02:48:58;6.97;;;5.70;;
13943;SDS011;7044;53.286;8.534;2022-08-01T02:51:27;8.85;;;6.18;;
13943;SDS011;7044;53.286;8.534;2022-08-01T02:53:55;6.85;;;5.30;;
13943;SDS011;7044;53.286;8.534;2022-08-01T02:56:23;5.15;;;4.40;;
13943;SDS011;7044;53.286;8.534;2022-08-01T02:58:59;8.40;;;4.95;;
13943;SDS011;7044;53.286;8.534;2022-08-01T03:01:28;5.55;;;4.30;;
13943;SDS011;7044;53.286;8.534;2022-08-01T03:03:57;5.45;;;4.43;;
13943;SDS011;7044;53.286;8.534;2022-08-01T03:06:25;12.57;;;4.32;;
13943;SDS011;7044;53.286;8.534;2022-08-01T03:08:53;8.25;;;3.88;;
13943;SDS011;7044;53.286;8.534;2022-08-01T03:11:21;5.68;;;3.58;;
13943;SDS011;7044;53.286;8.534;2022-08-01T03:13:50;5.28;;;3.80;;
13943;SDS011;7044;53.286;8.534;2022-08-01T03:16:19;4.03;;;3.10;;
13943;SDS011;7044;53.286;8.534;2022-08-01T03:18:49;4.05;;;2.97;;
13943;SDS011;7044;53.286;8.534;2022-08-01T03:21:20;3.55;;;2.83;;
13943;SDS011;7044;53.286;8.534;2022-08-01T03:23:49;4.07;;;2.90;;
13943;SDS011;7044;53.286;8.534;2022-08-01T03:26:21;5.75;;;3.05;;
13943;SDS011;7044;53.286;8.534;2022-08-01T03:28:50;3.08;;;2.40;;
13943;SDS011;7044;53.286;8.534;2022-08-01T03:31:19;4.50;;;2.70;;
13943;SDS011;7044;53.286;8.534;2022-08-01T03:33:46;7.15;;;2.83;;
13943;SDS011;7044;53.286;8.534;2022-08-01T03:36:13;4.85;;;2.33;;
13943;SDS011;7044;53.286;8.534;2022-08-01T03:38:43;2.80;;;1.98;;
13943;SDS011;7044;53.286;8.534;2022-08-01T03:41:13;3.47;;;1.95;;
13943;SDS011;7044;53.286;8.534;2022-08-01T03:43:45;5.50;;;2.10;;
13943;SDS011;7044;53.286;8.534;2022-08-01T03:46:17;6.65;;;2.10;;
13943;SDS011;7044;53.286;8.534;2022-08-01T03:48:48;1.60;;;1.50;;
13943;SDS011;7044;53.286;8.534;2022-08-01T03:51:18;2.20;;;1.65;;
13943;SDS011;7044;53.286;8.534;2022-08-01T03:53:48;2.28;;;1.50;;
13943;SDS011;7044;53.286;8.534;2022-08-01T03:56:17;3.70;;;1.42;;
13943;SDS011;7044;53.286;8.534;2022-08-01T03:58:45;4.18;;;1.50;;
13943;SDS011;7044;53.286;8.534;2022-08-01T04:01:13;1.40;;;1.20;;
13943;SDS011;7044;53.286;8.534;2022-08-01T04:03:41;4.57;;;1.52;;
13943;SDS011;7044;53.286;8.534;2022-08-01T04:06:08;1.45;;;1.10;;
13943;SDS011;7044;53.286;8.534;2022-08-01T04:08:35;1.20;;;1.10;;
13943;SDS011;7044;53.286;8.534;2022-08-01T04:11:04;3.22;;;1.20;;
13943;SDS011;7044;53.286;8.534;2022-08-01T04:13:32;2.85;;;1.65;;
13943;SDS011;7044;53.286;8.534;2022-08-01T04:15:59;2.05;;;1.20;;
13943;SDS011;7044;53.286;8.534;2022-08-01T04:18:26;2.05;;;1.17;;
13943;SDS011;7044;53.286;8.534;2022-08-01T04:20:53;4.20;;;1.42;;
13943;SDS011;7044;53.286;8.534;2022-08-01T04:23:20;3.67;;;1.60;;
13943;SDS011;7044;53.286;8.534;2022-08-01T04:25:50;3.50;;;1.45;;
13943;SDS011;7044;53.286;8.534;2022-08-01T04:28:21;2.20;;;1.10;;
13943;SDS011;7044;53.286;8.534;2022-08-01T04:30:50;1.55;;;1.10;;
13943;SDS011;7044;53.286;8.534;2022-08-01T04:33:21;3.47;;;1.45;;
13943;SDS011;7044;53.286;8.534;2022-08-01T04:35:49;2.30;;;1.50;;
13943;SDS011;7044;53.286;8.534;2022-08-01T04:38:19;4.38;;;1.60;;
13943;SDS011;7044;53.286;8.534;2022-08-01T04:40:47;2.95;;;1.35;;
13943;SDS011;7044;53.286;8.534;2022-08-01T04:43:16;2.38;;;1.90;;
13943;SDS011;7044;53.286;8.534;2022-08-01T04:45:45;2.55;;;1.70;;
13943;SDS011;7044;53.286;8.534;2022-08-01T04:48:13;5.72;;;2.08;;
13943;SDS011;7044;53.286;8.534;2022-08-01T04:50:42;6.57;;;2.38;;
13943;SDS011;7044;53.286;8.534;2022-08-01T04:53:12;6.85;;;2.47;;
13943;SDS011;7044;53.286;8.534;2022-08-01T04:55:39;7.68;;;2.60;;
13943;SDS011;7044;53.286;8.534;2022-08-01T04:58:06;5.25;;;2.60;;
13943;SDS011;7044;53.286;8.534;2022-08-01T05:00:35;10.82;;;2.67;;
13943;SDS011;7044;53.286;8.534;2022-08-01T05:03:03;6.45;;;2.33;;
13943;SDS011;7044;53.286;8.534;2022-08-01T05:05:30;9.07;;;2.30;;
13943;SDS011;7044;53.286;8.534;2022-08-01T05:07:57;8.05;;;2.80;;
13943;SDS011;7044;53.286;8.534;2022-08-01T05:10:24;5.25;;;2.35;;
13943;SDS011;7044;53.286;8.534;2022-08-01T05:12:51;5.30;;;1.98;;
13943;SDS011;7044;53.286;8.534;2022-08-01T05:15:18;5.03;;;2.35;;
13943;SDS011;7044;53.286;8.534;2022-08-01T05:17:46;12.88;;;2.95;;
13943;SDS011;7044;53.286;8.534;2022-08-01T05:20:14;13.50;;;2.88;;
13943;SDS011;7044;53.286;8.534;2022-08-01T05:22:41;8.30;;;2.65;;
13943;SDS011;7044;53.286;8.534;2022-08-01T05:25:08;12.20;;;2.65;;
13943;SDS011;7044;53.286;8.534;2022-08-01T05:27:35;9.27;;;2.50;;
13943;SDS011;7044;53.286;8.534;2022-08-01T05:30:05;6.10;;;2.05;;
13943;SDS011;7044;53.286;8.534;2022-08-01T05:32:33;10.68;;;2.33;;
13943;SDS011;7044;53.286;8.534;2022-08-01T05:34:59;9.40;;;2.72;;
13943;SDS011;7044;53.286;8.534;2022-08-01T05:37:28;12.25;;;2.40;;
13943;SDS011;7044;53.286;8.534;2022-08-01T05:39:55;5.65;;;2.60;;
13943;SDS011;7044;53.286;8.534;2022-08-01T05:42:22;9.27;;;2.67;;
13943;SDS011;7044;53.286;8.534;2022-08-01T05:44:49;9.70;;;2.85;;
13943;SDS011;7044;53.286;8.534;2022-08-01T05:47:16;5.97;;;2.53;;
13943;SDS011;7044;53.286;8.534;2022-08-01T05:49:43;10.73;;;2.60;;
13943;SDS011;7044;53.286;8.534;2022-08-01T05:52:10;11.15;;;2.35;;
13943;SDS011;7044;53.286;8.534;2022-08-01T05:54:39;10.52;;;3.05;;
13943;SDS011;7044;53.286;8.534;2022-08-01T05:57:06;13.00;;;2.72;;
13943;SDS011;7044;53.286;8.534;2022-08-01T05:59:32;10.40;;;2.70;;
13943;SDS011;7044;53.286;8.534;2022-08-01T06:01:59;9.63;;;3.05;;
13943;SDS011;7044;53.286;8.534;2022-08-01T06:04:26;12.75;;;3.20;;
13943;SDS011;7044;53.286;8.534;2022-08-01T06:06:53;6.30;;;2.83;;
13943;SDS011;7044;53.286;8.534;2022-08-01T06:09:20;8.43;;;2.80;;
13943;SDS011;7044;53.286;8.534;2022-08-01T06:11:48;9.98;;;2.85;;
13943;SDS011;7044;53.286;8.534;2022-08-01T06:14:15;12.90;;;3.53;;
13943;SDS011;7044;53.286;8.534;2022-08-01T06:16:42;5.40;;;2.53;;
13943;SDS011;7044;53.286;8.534;2022-08-01T06:19:09;13.10;;;3.33;;
13943;SDS011;7044;53.286;8.534;2022-08-01T06:21:35;7.13;;;2.63;;
13943;SDS011;7044;53.286;8.534;2022-08-01T06:24:03;7.18;;;2.58;;
13943;SDS011;7044;53.286;8.534;2022-08-01T06:26:30;14.35;;;2.60;;
13943;SDS011;7044;53.286;8.534;2022-08-01T06:28:59;6.13;;;2.83;;
13943;SDS011;7044;53.286;8.534;2022-08-01T06:31:26;9.50;;;3.00;;
13943;SDS011;7044;53.286;8.534;2022-08-01T06:33:52;10.07;;;2.97;;
13943;SDS011;7044;53.286;8.534;2022-08-01T06:36:20;8.65;;;2.60;;
13943;SDS011;7044;53.286;8.534;2022-08-01T06:38:47;13.65;;;3.10;;
13943;SDS011;7044;53.286;8.534;2022-08-01T06:41:14;13.50;;;2.65;;
13943;SDS011;7044;53.286;8.534;2022-08-01T06:43:41;11.23;;;3.08;;
13943;SDS011;7044;53.286;8.534;2022-08-01T06:46:09;9.35;;;2.75;;
13943;SDS011;7044;53.286;8.534;2022-08-01T06:48:36;7.72;;;2.40;;
13943;SDS011;7044;53.286;8.534;2022-08-01T06:51:04;17.85;;;3.75;;
13943;SDS011;7044;53.286;8.534;2022-08-01T06:53:34;10.05;;;3.13;;
13943;SDS011;7044;53.286;8.534;2022-08-01T06:56:03;10.75;;;2.65;;
13943;SDS011;7044;53.286;8.534;2022-08-01T06:58:31;7.47;;;2.50;;
13943;SDS011;7044;53.286;8.534;2022-08-01T07:00:59;9.05;;;2.83;;
13943;SDS011;7044;53.286;8.534;2022-08-01T07:03:27;11.00;;;2.78;;
13943;SDS011;7044;53.286;8.534;2022-08-01T07:05:55;13.32;;;2.35;;
13943;SDS011;7044;53.286;8.534;2022-08-01T07:08:22;18.52;;;3.45;;
13943;SDS011;7044;53.286;8.534;2022-08-01T07:10:49;9.80;;;2.80;;
13943;SDS011;7044;53.286;8.534;2022-08-01T07:13:16;12.55;;;2.70;;
13943;SDS011;7044;53.286;8.534;2022-08-01T07:15:46;9.95;;;2.67;;
13943;SDS011;7044;53.286;8.534;2022-08-01T07:18:13;13.35;;;3.53;;
13943;SDS011;7044;53.286;8.534;2022-08-01T07:20:41;16.20;;;3.33;;
13943;SDS011;7044;53.286;8.534;2022-08-01T07:23:08;11.90;;;2.63;;
13943;SDS011;7044;53.286;8.534;2022-08-01T07:25:35;9.27;;;3.08;;
13943;SDS011;7044;53.286;8.534;2022-08-01T07:28:02;10.55;;;3.08;;
13943;SDS011;7044;53.286;8.534;2022-08-01T07:30:29;6.90;;;2.78;;
13943;SDS011;7044;53.286;8.534;2022-08-01T07:32:56;11.07;;;3.15;;
13943;SDS011;7044;53.286;8.534;2022-08-01T07:35:23;13.05;;;2.67;;
13943;SDS011;7044;53.286;8.534;2022-08-01T07:37:51;14.73;;;2.75;;
13943;SDS011;7044;53.286;8.534;2022-08-01T07:40:19;15.85;;;3.13;;
13943;SDS011;7044;53.286;8.534;2022-08-01T07:42:46;11.48;;;3.55;;
13943;SDS011;7044;53.286;8.534;2022-08-01T07:45:13;9.18;;;2.67;;
13943;SDS011;7044;53.286;8.534;2022-08-01T07:47:40;9.98;;;2.30;;
13943;SDS011;7044;53.286;8.534;2022-08-01T07:50:07;13.88;;;3.03;;
13943;SDS011;7044;53.286;8.534;2022-08-01T07:52:35;8.32;;;2.63;;
13943;SDS011;7044;53.286;8.534;2022-08-01T07:55:04;10.52;;;2.30;;
13943;SDS011;7044;53.286;8.534;2022-08-01T07:57:32;12.40;;;2.60;;
13943;SDS011;7044;53.286;8.534;2022-08-01T07:59:58;11.70;;;2.42;;
13943;SDS011;7044;53.286;8.534;2022-08-01T08:02:26;11.13;;;2.67;;
13943;SDS011;7044;53.286;8.534;2022-08-01T08:04:53;16.67;;;3.30;;
13943;SDS011;7044;53.286;8.534;2022-08-01T08:07:20;7.75;;;2.30;;
13943;SDS011;7044;53.286;8.534;2022-08-01T08:09:47;4.95;;;1.83;;
13943;SDS011;7044;53.286;8.534;2022-08-01T08:12:15;10.65;;;2.88;;
13943;SDS011;7044;53.286;8.534;2022-08-01T08:14:42;8.40;;;2.55;;
13943;SDS011;7044;53.286;8.534;2022-08-01T08:17:08;8.27;;;2.15;;
13943;SDS011;7044;53.286;8.534;2022-08-01T08:19:35;12.40;;;2.92;;
13943;SDS011;7044;53.286;8.534;2022-08-01T08:22:04;8.07;;;2.28;;
13943;SDS011;7044;53.286;8.534;2022-08-01T08:24:31;11.07;;;2.40;;
13943;SDS011;7044;53.286;8.534;2022-08-01T08:26:58;10.57;;;2.58;;
13943;SDS011;7044;53.286;8.534;2022-08-01T08:29:27;5.30;;;1.90;;
13943;SDS011;7044;53.286;8.534;2022-08-01T08:31:57;12.52;;;2.10;;
13943;SDS011;7044;53.286;8.534;2022-08-01T08:34:25;9.65;;;2.13;;
13943;SDS011;7044;53.286;8.534;2022-08-01T08:36:53;6.13;;;2.05;;
13943;SDS011;7044;53.286;8.534;2022-08-01T08:39:21;10.75;;;2.38;;
13943;SDS011;7044;53.286;8.534;2022-08-01T08:41:48;7.07;;;2.50;;
13943;SDS011;7044;53.286;8.534;2022-08-01T08:44:16;10.13;;;1.73;;
13943;SDS011;7044;53.286;8.534;2022-08-01T08:46:45;8.43;;;2.47;;
13943;SDS011;7044;53.286;8.534;2022-08-01T08:49:15;6.60;;;1.88;;
13943;SDS011;7044;53.286;8.534;2022-08-01T08:51:43;14.77;;;2.25;;
13943;SDS011;7044;53.286;8.534;2022-08-01T08:54:14;7.88;;;1.88;;
13943;SDS011;7044;53.286;8.534;2022-08-01T08:56:42;4.80;;;1.70;;
13943;SDS011;7044;53.286;8.534;2022-08-01T08:59:10;12.60;;;2.80;;
13943;SDS011;7044;53.286;8.534;2022-08-01T09:01:39;20.25;;;2.42;;
13943;SDS011;7044;53.286;8.534;2022-08-01T09:04:07;12.48;;;2.35;;
13943;SDS011;7044;53.286;8.534;2022-08-01T09:06:34;5.88;;;1.63;;
13943;SDS011;7044;53.286;8.534;2022-08-01T09:09:02;8.93;;;2.15;;
13943;SDS011;7044;53.286;8.534;2022-08-01T09:11:29;12.00;;;1.83;;
13943;SDS011;7044;53.286;8.534;2022-08-01T09:14:03;13.85;;;2.35;;
13943;SDS011;7044;53.286;8.534;2022-08-01T09:16:31;8.90;;;1.85;;
13943;SDS011;7044;53.286;8.534;2022-08-01T09:19:11;9.13;;;2.15;;
13943;SDS011;7044;53.286;8.534;2022-08-01T09:21:39;8.02;;;2.85;;
13943;SDS011;7044;53.286;8.534;2022-08-01T09:24:21;10.00;;;2.25;;
13943;SDS011;7044;53.286;8.534;2022-08-01T09:26:48;8.60;;;2.17;;
13943;SDS011;7044;53.286;8.534;2022-08-01T09:29:19;10.50;;;2.47;;
13943;SDS011;7044;53.286;8.534;2022-08-01T09:31:48;12.80;;;2.20;;
13943;SDS011;7044;53.286;8.534;2022-08-01T09:34:16;5.53;;;1.85;;
13943;SDS011;7044;53.286;8.534;2022-08-01T09:36:51;18.33;;;2.50;;
13943;SDS011;7044;53.286;8.534;2022-08-01T09:39:21;10.23;;;2.45;;
13943;SDS011;7044;53.286;8.534;2022-08-01T09:41:49;7.45;;;1.90;;
13943;SDS011;7044;53.286;8.534;2022-08-01T09:44:16;10.40;;;2.03;;
13943;SDS011;7044;53.286;8.534;2022-08-01T09:46:48;7.20;;;3.10;;
13943;SDS011;7044;53.286;8.534;2022-08-01T09:49:26;7.80;;;1.70;;
13943;SDS011;7044;53.286;8.534;2022-08-01T09:51:54;16.48;;;2.05;;
13943;SDS011;7044;53.286;8.534;2022-08-01T09:54:29;8.20;;;2.33;;
13943;SDS011;7044;53.286;8.534;2022-08-01T09:57:07;9.68;;;1.80;;
13943;SDS011;7044;53.286;8.534;2022-08-01T09:59:36;6.45;;;1.80;;
13943;SDS011;7044;53.286;8.534;2022-08-01T10:02:06;8.75;;;2.08;;
13943;SDS011;7044;53.286;8.534;2022-08-01T10:04:34;10.70;;;2.10;;
13943;SDS011;7044;53.286;8.534;2022-08-01T10:07:05;4.43;;;1.52;;
13943;SDS011;7044;53.286;8.534;2022-08-01T10:09:33;15.60;;;2.08;;
13943;SDS011;7044;53.286;8.534;2022-08-01T10:12:02;7.50;;;1.75;;
13943;SDS011;7044;53.286;8.534;2022-08-01T10:14:30;5.97;;;2.00;;
13943;SDS011;7044;53.286;8.534;2022-08-01T10:16:58;7.13;;;2.10;;
13943;SDS011;7044;53.286;8.534;2022-08-01T10:19:26;8.48;;;2.00;;
13943;SDS011;7044;53.286;8.534;2022-08-01T10:21:56;7.43;;;1.58;;
13943;SDS011;7044;53.286;8.534;2022-08-01T10:24:24;9.50;;;1.75;;
13943;SDS011;7044;53.286;8.534;2022-08-01T10:26:54;14.95;;;2.42;;
13943;SDS011;7044;53.286;8.534;2022-08-01T10:29:25;6.95;;;2.05;;
13943;SDS011;7044;53.286;8.534;2022-08-01T10:31:52;6.75;;;1.55;;
13943;SDS011;7044;53.286;8.534;2022-08-01T10:34:20;12.23;;;2.80;;
13943;SDS011;7044;53.286;8.534;2022-08-01T10:36:47;9.45;;;1.75;;
13943;SDS011;7044;53.286;8.534;2022-08-01T10:39:16;12.60;;;2.38;;
13943;SDS011;7044;53.286;8.534;2022-08-01T10:41:44;5.25;;;1.67;;
13943;SDS011;7044;53.286;8.534;2022-08-01T10:44:12;8.55;;;3.00;;
13943;SDS011;7044;53.286;8.534;2022-08-01T10:46:42;8.40;;;1.55;;
13943;SDS011;7044;53.286;8.534;2022-08-01T10:49:15;9.43;;;1.90;;
13943;SDS011;7044;53.286;8.534;2022-08-01T10:51:44;5.82;;;1.50;;
13943;SDS011;7044;53.286;8.534;2022-08-01T10:54:12;5.18;;;1.75;;
13943;SDS011;7044;53.286;8.534;2022-08-01T10:56:42;5.05;;;1.42;;
13943;SDS011;7044;53.286;8.534;2022-08-01T10:59:12;3.92;;;1.60;;
13943;SDS011;7044;53.286;8.534;2022-08-01T11:01:41;3.63;;;1.48;;
13943;SDS011;7044;53.286;8.534;2022-08-01T11:04:08;7.07;;;1.75;;
13943;SDS011;7044;53.286;8.534;2022-08-01T11:06:41;4.43;;;1.63;;
13943;SDS011;7044;53.286;8.534;2022-08-01T11:09:27;5.38;;;1.75;;
13943;SDS011;7044;53.286;8.534;2022-08-01T11:12:00;9.45;;;2.25;;
13943;SDS011;7044;53.286;8.534;2022-08-01T11:14:30;9.70;;;1.65;;
13943;SDS011;7044;53.286;8.534;2022-08-01T11:20:05;5.97;;;1.50;;
13943;SDS011;7044;53.286;8.534;2022-08-01T11:31:41;5.13;;;1.88;;
13943;SDS011;7044;53.286;8.534;2022-08-01T11:34:07;7.43;;;1.48;;
13943;SDS011;7044;53.286;8.534;2022-08-01T11:36:35;5.80;;;1.63;;
13943;SDS011;7044;53.286;8.534;2022-08-01T11:39:15;7.68;;;1.75;;
13943;SDS011;7044;53.286;8.534;2022-08-01T11:41:43;5.50;;;1.73;;
13943;SDS011;7044;53.286;8.534;2022-08-01T11:44:14;4.72;;;1.48;;
13943;SDS011;7044;53.286;8.534;2022-08-01T11:46:53;7.25;;;2.10;;
13943;SDS011;7044;53.286;8.534;2022-08-01T11:49:22;11.65;;;1.83;;
13943;SDS011;7044;53.286;8.534;2022-08-01T11:51:56;6.47;;;1.80;;
13943;SDS011;7044;53.286;8.534;2022-08-01T11:54:24;5.43;;;1.80;;
13943;SDS011;7044;53.286;8.534;2022-08-01T11:56:54;4.88;;;1.70;;
13943;SDS011;7044;53.286;8.534;2022-08-01T11:59:24;9.18;;;1.52;;
13943;SDS011;7044;53.286;8.534;2022-08-01T12:01:51;6.32;;;1.58;;
13943;SDS011;7044;53.286;8.534;2022-08-01T12:04:19;3.65;;;1.60;;
13943;SDS011;7044;53.286;8.534;2022-08-01T12:06:46;4.55;;;1.65;;
13943;SDS011;7044;53.286;8.534;2022-08-01T12:09:21;7.47;;;1.60;;
13943;SDS011;7044;53.286;8.534;2022-08-01T12:11:49;7.75;;;1.85;;
13943;SDS011;7044;53.286;8.534;2022-08-01T12:14:17;5.90;;;1.60;;
13943;SDS011;7044;53.286;8.534;2022-08-01T12:16:53;5.50;;;1.73;;
13943;SDS011;7044;53.286;8.534;2022-08-01T12:19:20;9.45;;;2.15;;
13943;SDS011;7044;53.286;8.534;2022-08-01T12:24:34;7.70;;;1.77;;
13943;SDS011;7044;53.286;8.534;2022-08-01T12:27:01;4.50;;;1.80;;
13943;SDS011;7044;53.286;8.534;2022-08-01T12:29:35;6.35;;;1.55;;
13943;SDS011;7044;53.286;8.534;2022-08-01T12:32:15;4.25;;;1.77;;
13943;SDS011;7044;53.286;8.534;2022-08-01T12:34:47;13.57;;;1.90;;
13943;SDS011;7044;53.286;8.534;2022-08-01T12:37:14;7.70;;;1.65;;
13943;SDS011;7044;53.286;8.534;2022-08-01T12:39:42;7.40;;;1.50;;
13943;SDS011;7044;53.286;8.534;2022-08-01T12:42:10;6.50;;;1.73;;
13943;SDS011;7044;53.286;8.534;2022-08-01T12:44:38;6.05;;;1.90;;
13943;SDS011;7044;53.286;8.534;2022-08-01T12:47:07;6.55;;;1.95;;
13943;SDS011;7044;53.286;8.534;2022-08-01T12:49:35;5.70;;;1.58;;
13943;SDS011;7044;53.286;8.534;2022-08-01T12:52:03;3.20;;;1.35;;
13943;SDS011;7044;53.286;8.534;2022-08-01T12:54:43;3.08;;;1.50;;
13943;SDS011;7044;53.286;8.534;2022-08-01T12:57:37;5.53;;;1.77;;
13943;SDS011;7044;53.286;8.534;2022-08-01T13:00:15;10.07;;;1.85;;
13943;SDS011;7044;53.286;8.534;2022-08-01T13:02:49;10.25;;;2.13;;
13943;SDS011;7044;53.286;8.534;2022-08-01T13:05:17;4.97;;;1.73;;
13943;SDS011;7044;53.286;8.534;2022-08-01T13:07:45;5.45;;;1.30;;
13943;SDS011;7044;53.286;8.534;2022-08-01T13:10:14;8.55;;;1.73;;
13943;SDS011;7044;53.286;8.534;2022-08-01T13:12:50;5.47;;;1.83;;
13943;SDS011;7044;53.286;8.534;2022-08-01T13:15:20;5.78;;;1.88;;
13943;SDS011;7044;53.286;8.534;2022-08-01T13:17:52;7.80;;;1.48;;
13943;SDS011;7044;53.286;8.534;2022-08-01T13:20:24;5.57;;;1.80;;
13943;SDS011;7044;53.286;8.534;2022-08-01T13:23:09;7.35;;;1.88;;
13943;SDS011;7044;53.286;8.534;2022-08-01T13:25:46;6.00;;;1.52;;
13943;SDS011;7044;53.286;8.534;2022-08-01T13:28:14;6.53;;;1.80;;
13943;SDS011;7044;53.286;8.534;2022-08-01T13:30:50;5.28;;;1.60;;
13943;SDS011;7044;53.286;8.534;2022-08-01T13:33:18;11.18;;;2.47;;
13943;SDS011;7044;53.286;8.534;2022-08-01T13:35:45;9.38;;;1.70;;
13943;SDS011;7044;53.286;8.534;2022-08-01T13:38:12;8.88;;;2.47;;
13943;SDS011;7044;53.286;8.534;2022-08-01T13:40:39;4.63;;;1.55;;
13943;SDS011;7044;53.286;8.534;2022-08-01T13:43:06;8.93;;;2.20;;
13943;SDS011;7044;53.286;8.534;2022-08-01T13:45:33;6.38;;;1.73;;
13943;SDS011;7044;53.286;8.534;2022-08-01T13:48:00;4.68;;;1.50;;
13943;SDS011;7044;53.286;8.534;2022-08-01T13:50:29;6.53;;;1.90;;
13943;SDS011;7044;53.286;8.534;2022-08-01T13:52:56;4.82;;;1.55;;
13943;SDS011;7044;53.286;8.534;2022-08-01T13:55:24;5.95;;;1.48;;
13943;SDS011;7044;53.286;8.534;2022-08-01T13:57:51;8.25;;;2.33;;
13943;SDS011;7044;53.286;8.534;2022-08-01T14:00:18;4.45;;;1.80;;
13943;SDS011;7044;53.286;8.534;2022-08-01T14:02:45;4.80;;;1.48;;
13943;SDS011;7044;53.286;8.534;2022-08-01T14:05:12;5.38;;;1.98;;
13943;SDS011;7044;53.286;8.534;2022-08-01T14:07:40;4.60;;;1.50;;
13943;SDS011;7044;53.286;8.534;2022-08-01T14:10:07;5.93;;;2.05;;
13943;SDS011;7044;53.286;8.534;2022-08-01T14:12:34;5.50;;;1.50;;
13943;SDS011;7044;53.286;8.534;2022-08-01T14:15:01;4.80;;;1.63;;
13943;SDS011;7044;53.286;8.534;2022-08-01T14:17:28;7.25;;;1.88;;
13943;SDS011;7044;53.286;8.534;2022-08-01T14:19:55;3.33;;;1.55;;
13943;SDS011;7044;53.286;8.534;2022-08-01T14:22:24;7.25;;;1.70;;
13943;SDS011;7044;53.286;8.534;2022-08-01T14:24:52;8.63;;;2.17;;
13943;SDS011;7044;53.286;8.534;2022-08-01T14:27:19;6.45;;;2.22;;
13943;SDS011;7044;53.286;8.534;2022-08-01T14:29:46;5.85;;;1.70;;
13943;SDS011;7044;53.286;8.534;2022-08-01T14:32:13;9.07;;;2.53;;
13943;SDS011;7044;53.286;8.534;2022-08-01T14:34:39;5.35;;;1.65;;
13943;SDS011;7044;53.286;8.534;2022-08-01T14:37:06;2.30;;;1.15;;
13943;SDS011;7044;53.286;8.534;2022-08-01T14:39:33;8.20;;;1.92;;
13943;SDS011;7044;53.286;8.534;2022-08-01T14:42:01;4.57;;;1.55;;
13943;SDS011;7044;53.286;8.534;2022-08-01T14:44:28;5.90;;;1.88;;
13943;SDS011;7044;53.286;8.534;2022-08-01T14:46:55;5.93;;;1.65;;
13943;SDS011;7044;53.286;8.534;2022-08-01T14:49:22;6.88;;;1.95;;
13943;SDS011;7044;53.286;8.534;2022-08-01T14:51:50;6.40;;;1.67;;
13943;SDS011;7044;53.286;8.534;2022-08-01T14:54:16;3.80;;;1.50;;
13943;SDS011;7044;53.286;8.534;2022-08-01T14:56:44;5.80;;;1.70;;
13943;SDS011;7044;53.286;8.534;2022-08-01T14:59:12;5.38;;;1.55;;
13943;SDS011;7044;53.286;8.534;2022-08-01T15:01:39;6.65;;;1.70;;
13943;SDS011;7044;53.286;8.534;2022-08-01T15:04:06;8.73;;;1.83;;
13943;SDS011;7044;53.286;8.534;2022-08-01T15:06:32;5.05;;;1.70;;
13943;SDS011;7044;53.286;8.534;2022-08-01T15:08:59;7.10;;;2.05;;
13943;SDS011;7044;53.286;8.534;2022-08-01T15:11:27;7.25;;;2.22;;
13943;SDS011;7044;53.286;8.534;2022-08-01T15:13:54;7.03;;;1.90;;
13943;SDS011;7044;53.286;8.534;2022-08-01T15:16:36;8.85;;;1.95;;
13943;SDS011;7044;53.286;8.534;2022-08-01T15:19:03;6.63;;;1.90;;
13943;SDS011;7044;53.286;8.534;2022-08-01T15:21:30;3.20;;;1.50;;
13943;SDS011;7044;53.286;8.534;2022-08-01T15:23:57;6.70;;;1.85;;